sensor_id;sensor_type;location;lat;lon;timestamp;temperature;humidity
27870;DHT22;15225;50.730;4.244;2022-08-21T09:27:43;40.30;99.90
27870;DHT22;15225;50.730;4.244;2022-08-21T09:30:10;39.20;99.90
27870;DHT22;15225;50.730;4.244;2022-08-21T09:32:37;38.10;99.90
27870;DHT22;15225;50.730;4.244;2022-08-21T09:35:17;37.40;99.90
27870;DHT22;15225;50.730;4.244;2022-08-21T09:43:23;35.90;99.90
27870;DHT22;15225;50.730;4.244;2022-08-21T09:46:03;36.50;99.90
27870;DHT22;15225;50.730;4.244;2022-08-21T09:48:30;36.90;99.90
27870;DHT22;15225;50.730;4.244;2022-08-21T09:51:11;35.50;99.90
27870;DHT22;15225;50.730;4.244;2022-08-21T09:53:42;34.70;99.90
27870;DHT22;15225;50.730;4.244;2022-08-21T09:59:31;36.40;99.90
27870;DHT22;15225;50.730;4.244;2022-08-21T10:02:00;37.20;99.90
27870;DHT22;15225;50.730;4.244;2022-08-21T10:04:33;38.20;99.90
27870;DHT22;15225;50.730;4.244;2022-08-21T10:07:11;39.50;99.90
27870;DHT22;15225;50.730;4.244;2022-08-21T10:09:38;40.00;99.90
27870;DHT22;15225;50.730;4.244;2022-08-21T10:17:45;37.20;99.90
27870;DHT22;15225;50.730;4.244;2022-08-21T10:23:07;38.70;99.90
27870;DHT22;15225;50.730;4.244;2022-08-21T10:25:47;39.90;99.90
27870;DHT22;15225;50.730;4.244;2022-08-21T10:28:49;39.70;99.90
27870;DHT22;15225;50.730;4.244;2022-08-21T10:31:32;40.20;99.90
27870;DHT22;15225;50.730;4.244;2022-08-21T10:39:28;37.60;99.90
27870;DHT22;15225;50.730;4.244;2022-08-21T10:47:53;35.30;99.90
27870;DHT22;15225;50.730;4.244;2022-08-21T10:50:34;35.30;99.90
27870;DHT22;15225;50.730;4.244;2022-08-21T10:56:02;35.70;99.90
27870;DHT22;15225;50.730;4.244;2022-08-21T12:02:36;43.60;99.90
27870;DHT22;15225;50.730;4.244;2022-08-21T12:05:09;42.00;99.90
27870;DHT22;15225;50.730;4.244;2022-08-21T12:07:39;40.50;99.90
27870;DHT22;15225;50.730;4.244;2022-08-21T12:10:18;40.70;99.90
27870;DHT22;15225;50.730;4.244;2022-08-21T12:12:46;41.20;99.90
27870;DHT22;15225;50.730;4.244;2022-08-21T12:20:44;42.40;99.90
27870;DHT22;15225;50.730;4.244;2022-08-21T12:25:42;42.60;99.90
27870;DHT22;15225;50.730;4.244;2022-08-21T12:28:10;41.20;99.90
27870;DHT22;15225;50.730;4.244;2022-08-21T12:30:40;39.40;99.90
27870;DHT22;15225;50.730;4.244;2022-08-21T12:33:28;37.60;99.90
27870;DHT22;15225;50.730;4.244;2022-08-21T12:36:12;36.70;99.90
27870;DHT22;15225;50.730;4.244;2022-08-21T12:39:04;36.10;99.90
27870;DHT22;15225;50.730;4.244;2022-08-21T12:41:55;35.10;99.90
27870;DHT22;15225;50.730;4.244;2022-08-21T12:44:44;34.40;99.90
27870;DHT22;15225;50.730;4.244;2022-08-21T12:47:33;33.90;99.90
27870;DHT22;15225;50.730;4.244;2022-08-21T12:50:05;33.40;99.90
27870;DHT22;15225;50.730;4.244;2022-08-21T12:52:33;33.30;99.90
27870;DHT22;15225;50.730;4.244;2022-08-21T12:55:00;33.10;99.90
27870;DHT22;15225;50.730;4.244;2022-08-21T12:57:28;32.20;99.90
27870;DHT22;15225;50.730;4.244;2022-08-21T12:59:55;31.60;99.90
27870;DHT22;15225;50.730;4.244;2022-08-21T13:02:35;30.90;99.90
27870;DHT22;15225;50.730;4.244;2022-08-21T13:05:04;30.40;99.90
27870;DHT22;15225;50.730;4.244;2022-08-21T13:07:32;30.00;99.90
27870;DHT22;15225;50.730;4.244;2022-08-21T13:10:06;29.80;99.90
27870;DHT22;15225;50.730;4.244;2022-08-21T13:12:33;29.50;99.90
27870;DHT22;15225;50.730;4.244;2022-08-21T13:15:04;29.00;99.90
27870;DHT22;15225;50.730;4.244;2022-08-21T13:17:34;28.70;99.90
27870;DHT22;15225;50.730;4.244;2022-08-21T13:20:03;28.70;99.90
27870;DHT22;15225;50.730;4.244;2022-08-21T13:22:29;28.30;99.90
27870;DHT22;15225;50.730;4.244;2022-08-21T13:24:55;28.20;99.90
27870;DHT22;15225;50.730;4.244;2022-08-21T13:27:29;28.50;99.90
27870;DHT22;15225;50.730;4.244;2022-08-21T13:30:09;28.60;99.90
27870;DHT22;15225;50.730;4.244;2022-08-21T13:32:37;28.90;99.90
27870;DHT22;15225;50.730;4.244;2022-08-21T13:35:35;29.20;99.90
27870;DHT22;15225;50.730;4.244;2022-08-21T13:38:03;29.10;99.90
27870;DHT22;15225;50.730;4.244;2022-08-21T13:40:32;28.90;99.90
27870;DHT22;15225;50.730;4.244;2022-08-21T13:43:11;28.80;99.90
27870;DHT22;15225;50.730;4.244;2022-08-21T13:45:37;28.60;99.90
27870;DHT22;15225;50.730;4.244;2022-08-21T13:48:04;28.30;99.90
27870;DHT22;15225;50.730;4.244;2022-08-21T13:50:33;28.40;99.90
27870;DHT22;15225;50.730;4.244;2022-08-21T13:53:21;28.20;99.90
27870;DHT22;15225;50.730;4.244;2022-08-21T13:55:48;28.30;99.90
27870;DHT22;15225;50.730;4.244;2022-08-21T13:58:24;28.40;99.90
27870;DHT22;15225;50.730;4.244;2022-08-21T14:00:52;28.60;99.90
27870;DHT22;15225;50.730;4.244;2022-08-21T14:05:57;28.60;99.90
27870;DHT22;15225;50.730;4.244;2022-08-21T14:08:33;28.50;99.90
27870;DHT22;15225;50.730;4.244;2022-08-21T14:11:00;28.60;99.90
27870;DHT22;15225;50.730;4.244;2022-08-21T14:13:41;28.70;99.90
27870;DHT22;15225;50.730;4.244;2022-08-21T14:16:20;28.70;99.90
27870;DHT22;15225;50.730;4.244;2022-08-21T14:18:52;29.00;99.90
27870;DHT22;15225;50.730;4.244;2022-08-21T14:21:41;28.80;99.90
27870;DHT22;15225;50.730;4.244;2022-08-21T14:26:52;28.70;99.90
27870;DHT22;15225;50.730;4.244;2022-08-21T14:29:19;28.70;99.90
27870;DHT22;15225;50.730;4.244;2022-08-21T14:31:54;28.60;99.90
27870;DHT22;15225;50.730;4.244;2022-08-21T14:34:22;29.00;99.90
27870;DHT22;15225;50.730;4.244;2022-08-21T14:36:50;29.40;99.90
27870;DHT22;15225;50.730;4.244;2022-08-21T14:39:17;29.80;99.90
27870;DHT22;15225;50.730;4.244;2022-08-21T14:41:43;30.10;99.90
27870;DHT22;15225;50.730;4.244;2022-08-21T14:44:11;29.80;99.90
27870;DHT22;15225;50.730;4.244;2022-08-21T14:46:37;29.80;99.90
27870;DHT22;15225;50.730;4.244;2022-08-21T14:49:04;30.10;99.90
27870;DHT22;15225;50.730;4.244;2022-08-21T14:51:30;30.00;99.90
27870;DHT22;15225;50.730;4.244;2022-08-21T14:53:55;29.50;99.90
27870;DHT22;15225;50.730;4.244;2022-08-21T14:56:21;29.40;99.90
27870;DHT22;15225;50.730;4.244;2022-08-21T14:58:49;29.40;99.90
27870;DHT22;15225;50.730;4.244;2022-08-21T15:01:17;29.30;99.90
27870;DHT22;15225;50.730;4.244;2022-08-21T15:03:44;29.20;99.90
27870;DHT22;15225;50.730;4.244;2022-08-21T15:06:11;29.10;99.90
27870;DHT22;15225;50.730;4.244;2022-08-21T15:08:37;28.80;99.90
27870;DHT22;15225;50.730;4.244;2022-08-21T15:11:03;28.70;99.90
27870;DHT22;15225;50.730;4.244;2022-08-21T15:13:30;28.40;99.90
27870;DHT22;15225;50.730;4.244;2022-08-21T15:15:57;28.00;99.90
27870;DHT22;15225;50.730;4.244;2022-08-21T15:18:28;28.00;99.90
27870;DHT22;15225;50.730;4.244;2022-08-21T15:20:54;28.00;99.90
27870;DHT22;15225;50.730;4.244;2022-08-21T15:23:20;28.00;99.90
27870;DHT22;15225;50.730;4.244;2022-08-21T15:25:48;28.10;99.90
27870;DHT22;15225;50.730;4.244;2022-08-21T15:28:15;28.00;99.90
27870;DHT22;15225;50.730;4.244;2022-08-21T15:30:42;27.90;99.90
27870;DHT22;15225;50.730;4.244;2022-08-21T15:33:08;28.00;99.90
27870;DHT22;15225;50.730;4.244;2022-08-21T15:35:34;28.00;99.90
27870;DHT22;15225;50.730;4.244;2022-08-21T15:38:00;28.10;99.90
27870;DHT22;15225;50.730;4.244;2022-08-21T15:40:27;27.90;99.90
27870;DHT22;15225;50.730;4.244;2022-08-21T15:42:57;28.00;99.90
27870;DHT22;15225;50.730;4.244;2022-08-21T15:45:24;27.90;99.90
27870;DHT22;15225;50.730;4.244;2022-08-21T15:47:50;27.90;99.90
27870;DHT22;15225;50.730;4.244;2022-08-21T15:50:16;28.00;99.90
27870;DHT22;15225;50.730;4.244;2022-08-21T15:52:42;27.70;99.90
27870;DHT22;15225;50.730;4.244;2022-08-21T15:55:12;27.60;99.90
27870;DHT22;15225;50.730;4.244;2022-08-21T15:57:44;27.70;99.90
27870;DHT22;15225;50.730;4.244;2022-08-21T16:00:20;28.00;99.90
27870;DHT22;15225;50.730;4.244;2022-08-21T16:02:50;28.00;99.90
27870;DHT22;15225;50.730;4.244;2022-08-21T16:05:17;27.80;99.90
27870;DHT22;15225;50.730;4.244;2022-08-21T16:07:45;27.70;99.90
27870;DHT22;15225;50.730;4.244;2022-08-21T16:10:12;27.70;99.90
27870;DHT22;15225;50.730;4.244;2022-08-21T16:12:45;27.80;99.90
27870;DHT22;15225;50.730;4.244;2022-08-21T16:15:13;28.00;99.90
27870;DHT22;15225;50.730;4.244;2022-08-21T16:17:41;27.80;99.90
27870;DHT22;15225;50.730;4.244;2022-08-21T16:20:12;27.80;99.90
27870;DHT22;15225;50.730;4.244;2022-08-21T16:22:38;27.60;99.90
27870;DHT22;15225;50.730;4.244;2022-08-21T16:25:05;27.60;99.90
27870;DHT22;15225;50.730;4.244;2022-08-21T16:27:32;27.90;99.90
27870;DHT22;15225;50.730;4.244;2022-08-21T16:29:59;28.00;99.90
27870;DHT22;15225;50.730;4.244;2022-08-21T16:32:25;28.00;99.90
27870;DHT22;15225;50.730;4.244;2022-08-21T16:34:51;27.80;99.90
27870;DHT22;15225;50.730;4.244;2022-08-21T16:37:17;27.80;99.90
27870;DHT22;15225;50.730;4.244;2022-08-21T16:39:43;27.70;99.90
27870;DHT22;15225;50.730;4.244;2022-08-21T16:42:14;27.80;99.90
27870;DHT22;15225;50.730;4.244;2022-08-21T16:44:42;28.00;99.90
27870;DHT22;15225;50.730;4.244;2022-08-21T16:47:08;28.00;99.90
27870;DHT22;15225;50.730;4.244;2022-08-21T16:49:34;27.80;99.90
27870;DHT22;15225;50.730;4.244;2022-08-21T16:52:00;27.80;99.90
27870;DHT22;15225;50.730;4.244;2022-08-21T16:54:26;27.70;99.90
27870;DHT22;15225;50.730;4.244;2022-08-21T16:56:52;27.40;99.90
27870;DHT22;15225;50.730;4.244;2022-08-21T16:59:17;27.10;99.90
27870;DHT22;15225;50.730;4.244;2022-08-21T17:01:43;26.80;99.90
27870;DHT22;15225;50.730;4.244;2022-08-21T17:04:09;26.80;99.90
27870;DHT22;15225;50.730;4.244;2022-08-21T17:06:36;26.70;99.90
27870;DHT22;15225;50.730;4.244;2022-08-21T17:09:02;26.70;99.90
27870;DHT22;15225;50.730;4.244;2022-08-21T17:11:36;26.80;99.90
27870;DHT22;15225;50.730;4.244;2022-08-21T17:14:12;26.80;99.90
27870;DHT22;15225;50.730;4.244;2022-08-21T17:16:41;26.90;99.90
27870;DHT22;15225;50.730;4.244;2022-08-21T17:19:08;27.00;99.90
27870;DHT22;15225;50.730;4.244;2022-08-21T17:21:34;27.00;99.90
27870;DHT22;15225;50.730;4.244;2022-08-21T17:24:00;27.00;99.90
27870;DHT22;15225;50.730;4.244;2022-08-21T17:26:26;27.20;99.90
27870;DHT22;15225;50.730;4.244;2022-08-21T17:28:52;27.00;99.90
27870;DHT22;15225;50.730;4.244;2022-08-21T17:31:17;26.80;99.90
27870;DHT22;15225;50.730;4.244;2022-08-21T17:33:51;26.80;99.90
27870;DHT22;15225;50.730;4.244;2022-08-21T17:36:20;26.90;99.90
27870;DHT22;15225;50.730;4.244;2022-08-21T17:38:46;26.80;99.90
27870;DHT22;15225;50.730;4.244;2022-08-21T17:41:12;26.70;99.90
27870;DHT22;15225;50.730;4.244;2022-08-21T17:43:39;26.80;99.90
27870;DHT22;15225;50.730;4.244;2022-08-21T17:46:05;26.70;99.90
27870;DHT22;15225;50.730;4.244;2022-08-21T17:48:31;26.60;99.90
27870;DHT22;15225;50.730;4.244;2022-08-21T17:50:57;26.50;99.90
27870;DHT22;15225;50.730;4.244;2022-08-21T17:53:23;26.50;99.90
27870;DHT22;15225;50.730;4.244;2022-08-21T17:55:49;26.40;99.90
27870;DHT22;15225;50.730;4.244;2022-08-21T17:58:16;26.40;99.90
27870;DHT22;15225;50.730;4.244;2022-08-21T18:00:42;26.30;99.90
27870;DHT22;15225;50.730;4.244;2022-08-21T18:03:28;26.40;99.90
27870;DHT22;15225;50.730;4.244;2022-08-21T18:05:56;26.20;99.90
27870;DHT22;15225;50.730;4.244;2022-08-21T18:08:23;26.30;99.90
27870;DHT22;15225;50.730;4.244;2022-08-21T18:10:49;26.30;99.90
27870;DHT22;15225;50.730;4.244;2022-08-21T18:13:23;26.20;99.90
27870;DHT22;15225;50.730;4.244;2022-08-21T18:15:52;26.20;99.90
27870;DHT22;15225;50.730;4.244;2022-08-21T18:18:20;26.00;99.90
27870;DHT22;15225;50.730;4.244;2022-08-21T18:20:46;26.00;99.90
27870;DHT22;15225;50.730;4.244;2022-08-21T18:23:12;26.00;99.90
27870;DHT22;15225;50.730;4.244;2022-08-21T18:25:39;25.90;99.90
27870;DHT22;15225;50.730;4.244;2022-08-21T18:28:07;25.80;99.90
27870;DHT22;15225;50.730;4.244;2022-08-21T18:30:37;25.70;99.90
27870;DHT22;15225;50.730;4.244;2022-08-21T18:33:04;25.70;99.90
27870;DHT22;15225;50.730;4.244;2022-08-21T18:35:31;25.60;99.90
27870;DHT22;15225;50.730;4.244;2022-08-21T18:37:57;25.50;99.90
27870;DHT22;15225;50.730;4.244;2022-08-21T18:40:23;25.40;99.90
27870;DHT22;15225;50.730;4.244;2022-08-21T18:42:49;25.30;99.90
27870;DHT22;15225;50.730;4.244;2022-08-21T18:45:17;25.20;99.90
27870;DHT22;15225;50.730;4.244;2022-08-21T18:47:47;25.10;99.90
27870;DHT22;15225;50.730;4.244;2022-08-21T18:50:16;25.00;99.90
27870;DHT22;15225;50.730;4.244;2022-08-21T18:52:42;25.00;99.90
27870;DHT22;15225;50.730;4.244;2022-08-21T18:55:11;24.90;99.90
27870;DHT22;15225;50.730;4.244;2022-08-21T18:57:38;24.90;99.90
27870;DHT22;15225;50.730;4.244;2022-08-21T19:00:08;25.00;99.90
27870;DHT22;15225;50.730;4.244;2022-08-21T19:02:39;25.10;99.90
27870;DHT22;15225;50.730;4.244;2022-08-21T19:05:06;25.00;99.90
27870;DHT22;15225;50.730;4.244;2022-08-21T19:07:34;25.00;99.90
27870;DHT22;15225;50.730;4.244;2022-08-21T19:10:00;24.90;99.90
27870;DHT22;15225;50.730;4.244;2022-08-21T19:12:26;24.90;99.90
27870;DHT22;15225;50.730;4.244;2022-08-21T19:14:53;24.70;99.90
27870;DHT22;15225;50.730;4.244;2022-08-21T19:17:21;24.60;99.90
27870;DHT22;15225;50.730;4.244;2022-08-21T19:19:47;24.50;99.90
27870;DHT22;15225;50.730;4.244;2022-08-21T19:22:13;24.40;99.90
27870;DHT22;15225;50.730;4.244;2022-08-21T19:24:40;24.30;99.90
27870;DHT22;15225;50.730;4.244;2022-08-21T19:27:08;24.40;1.00
27870;DHT22;15225;50.730;4.244;2022-08-21T19:29:34;24.40;1.00
27870;DHT22;15225;50.730;4.244;2022-08-21T19:32:02;24.30;1.00
27870;DHT22;15225;50.730;4.244;2022-08-21T19:34:28;24.30;1.00
27870;DHT22;15225;50.730;4.244;2022-08-21T19:36:54;24.40;1.00
27870;DHT22;15225;50.730;4.244;2022-08-21T19:39:22;24.50;1.00
27870;DHT22;15225;50.730;4.244;2022-08-21T19:41:51;24.50;1.00
27870;DHT22;15225;50.730;4.244;2022-08-21T19:44:19;24.50;1.00
27870;DHT22;15225;50.730;4.244;2022-08-21T19:46:47;24.40;1.00
27870;DHT22;15225;50.730;4.244;2022-08-21T19:49:17;24.30;1.00
27870;DHT22;15225;50.730;4.244;2022-08-21T19:51:43;24.30;1.00
27870;DHT22;15225;50.730;4.244;2022-08-21T19:54:27;24.20;1.00
27870;DHT22;15225;50.730;4.244;2022-08-21T19:56:55;24.10;1.00
27870;DHT22;15225;50.730;4.244;2022-08-21T19:59:21;23.90;1.00
27870;DHT22;15225;50.730;4.244;2022-08-21T20:01:48;24.00;1.00
27870;DHT22;15225;50.730;4.244;2022-08-21T20:04:14;24.10;1.00
27870;DHT22;15225;50.730;4.244;2022-08-21T20:06:40;24.20;1.00
27870;DHT22;15225;50.730;4.244;2022-08-21T20:09:07;24.20;1.00
27870;DHT22;15225;50.730;4.244;2022-08-21T20:11:55;24.00;1.00
27870;DHT22;15225;50.730;4.244;2022-08-21T20:14:25;23.90;1.00
27870;DHT22;15225;50.730;4.244;2022-08-21T20:16:52;23.90;1.00
27870;DHT22;15225;50.730;4.244;2022-08-21T20:19:19;24.00;1.00
27870;DHT22;15225;50.730;4.244;2022-08-21T20:21:45;24.00;1.00
27870;DHT22;15225;50.730;4.244;2022-08-21T20:24:12;23.90;1.00
27870;DHT22;15225;50.730;4.244;2022-08-21T20:26:38;24.00;1.00
27870;DHT22;15225;50.730;4.244;2022-08-21T20:29:05;23.90;1.00
27870;DHT22;15225;50.730;4.244;2022-08-21T20:31:31;23.80;1.00
27870;DHT22;15225;50.730;4.244;2022-08-21T20:33:58;23.60;1.00
27870;DHT22;15225;50.730;4.244;2022-08-21T20:36:24;23.60;1.00
27870;DHT22;15225;50.730;4.244;2022-08-21T20:38:50;23.50;1.00
27870;DHT22;15225;50.730;4.244;2022-08-21T20:41:18;23.40;1.00
27870;DHT22;15225;50.730;4.244;2022-08-21T20:43:44;23.30;11.30
27870;DHT22;15225;50.730;4.244;2022-08-21T20:46:09;23.30;18.50
27870;DHT22;15225;50.730;4.244;2022-08-21T20:48:39;23.40;24.80
27870;DHT22;15225;50.730;4.244;2022-08-21T20:54:31;23.40;28.80
27870;DHT22;15225;50.730;4.244;2022-08-21T21:00:23;23.30;54.40
27870;DHT22;15225;50.730;4.244;2022-08-21T21:03:00;23.10;99.90
27870;DHT22;15225;50.730;4.244;2022-08-21T21:09:03;23.00;99.90
27870;DHT22;15225;50.730;4.244;2022-08-21T21:11:48;23.00;99.90
27870;DHT22;15225;50.730;4.244;2022-08-21T21:14:23;23.00;99.90
27870;DHT22;15225;50.730;4.244;2022-08-21T21:16:57;22.90;99.90
27870;DHT22;15225;50.730;4.244;2022-08-21T21:22:17;22.80;99.90
